Meadow Summit, North Carolina
Current Conditions -  °F | °C
As of 3:35 PM on Friday 28 Nov 2014 (Local Time) from KSIF Reporting Station
Clear Clear  
Wind Chill: 42°   Ceiling: Unl
Heat Index: 42°   Visibility: 10mi
Dew Point: 17°   Wind: 3mph
Humidity: 38%   Direction: 230°SW
Pressure: 30.28"   Gusts: NA
Location:  36.5114°N, 79.7844°W
Report Text: KSIF 282035Z AUTO 23003KT 10SM CLR 05/M08 A3028 RMK AO2 P0001 T00531081
Loading
Personal Weather Stations






























Interactive Weather Map New forecast layout! Learn more

10-Day Weather Forecast

Advertisements
Track Severe Weather on mobile